sensor_id;sensor_type;location;lat;lon;timestamp;P1;durP1;ratioP1;P2;durP2;ratioP2
20908;SDS011;10614;53.198;6.570;2023-08-21T00:01:45;2.03;;;1.40;;
20908;SDS011;10614;53.198;6.570;2023-08-21T00:03:47;3.83;;;1.60;;
20908;SDS011;10614;53.198;6.570;2023-08-21T00:05:48;3.45;;;1.73;;
20908;SDS011;10614;53.198;6.570;2023-08-21T00:07:50;3.00;;;1.73;;
20908;SDS011;10614;53.198;6.570;2023-08-21T00:09:53;3.03;;;1.67;;
20908;SDS011;10614;53.198;6.570;2023-08-21T00:11:56;3.85;;;1.77;;
20908;SDS011;10614;53.198;6.570;2023-08-21T00:13:57;3.47;;;1.63;;
20908;SDS011;10614;53.198;6.570;2023-08-21T00:15:59;3.05;;;1.50;;
20908;SDS011;10614;53.198;6.570;2023-08-21T00:18:01;5.63;;;1.60;;
20908;SDS011;10614;53.198;6.570;2023-08-21T00:20:03;5.95;;;2.03;;
20908;SDS011;10614;53.198;6.570;2023-08-21T00:22:05;3.08;;;1.70;;
20908;SDS011;10614;53.198;6.570;2023-08-21T00:24:07;6.60;;;2.22;;
20908;SDS011;10614;53.198;6.570;2023-08-21T00:26:10;5.68;;;2.03;;
20908;SDS011;10614;53.198;6.570;2023-08-21T00:28:12;5.35;;;2.15;;
20908;SDS011;10614;53.198;6.570;2023-08-21T00:30:15;4.35;;;2.08;;
20908;SDS011;10614;53.198;6.570;2023-08-21T00:32:16;4.35;;;1.85;;
20908;SDS011;10614;53.198;6.570;2023-08-21T00:34:18;4.80;;;2.13;;
20908;SDS011;10614;53.198;6.570;2023-08-21T00:36:20;5.50;;;2.38;;
20908;SDS011;10614;53.198;6.570;2023-08-21T00:38:21;4.07;;;2.03;;
20908;SDS011;10614;53.198;6.570;2023-08-21T00:40:23;5.43;;;1.95;;
20908;SDS011;10614;53.198;6.570;2023-08-21T00:42:27;3.22;;;1.90;;
20908;SDS011;10614;53.198;6.570;2023-08-21T00:44:29;4.60;;;2.13;;
20908;SDS011;10614;53.198;6.570;2023-08-21T00:46:30;5.53;;;2.38;;
20908;SDS011;10614;53.198;6.570;2023-08-21T00:48:33;5.13;;;2.00;;
20908;SDS011;10614;53.198;6.570;2023-08-21T00:50:35;7.60;;;2.60;;
20908;SDS011;10614;53.198;6.570;2023-08-21T00:52:37;7.45;;;2.53;;
20908;SDS011;10614;53.198;6.570;2023-08-21T00:54:39;7.20;;;2.58;;
20908;SDS011;10614;53.198;6.570;2023-08-21T00:56:41;4.38;;;2.50;;
20908;SDS011;10614;53.198;6.570;2023-08-21T00:58:45;6.05;;;2.30;;
20908;SDS011;10614;53.198;6.570;2023-08-21T01:00:47;5.13;;;2.53;;
20908;SDS011;10614;53.198;6.570;2023-08-21T01:02:51;4.30;;;2.22;;
20908;SDS011;10614;53.198;6.570;2023-08-21T01:04:53;4.57;;;2.08;;
20908;SDS011;10614;53.198;6.570;2023-08-21T01:06:56;4.32;;;2.15;;
20908;SDS011;10614;53.198;6.570;2023-08-21T01:09:00;4.80;;;2.03;;
20908;SDS011;10614;53.198;6.570;2023-08-21T01:11:08;3.55;;;2.17;;
20908;SDS011;10614;53.198;6.570;2023-08-21T01:13:19;4.25;;;2.33;;
20908;SDS011;10614;53.198;6.570;2023-08-21T01:15:29;3.88;;;1.98;;
20908;SDS011;10614;53.198;6.570;2023-08-21T01:17:31;3.92;;;1.83;;
20908;SDS011;10614;53.198;6.570;2023-08-21T01:19:37;3.30;;;1.88;;
20908;SDS011;10614;53.198;6.570;2023-08-21T01:21:43;4.28;;;1.90;;
20908;SDS011;10614;53.198;6.570;2023-08-21T01:23:46;3.35;;;1.70;;
20908;SDS011;10614;53.198;6.570;2023-08-21T01:25:48;4.72;;;2.17;;
20908;SDS011;10614;53.198;6.570;2023-08-21T01:27:49;2.75;;;1.70;;
20908;SDS011;10614;53.198;6.570;2023-08-21T01:29:51;3.40;;;1.70;;
20908;SDS011;10614;53.198;6.570;2023-08-21T01:31:55;3.70;;;1.85;;
20908;SDS011;10614;53.198;6.570;2023-08-21T01:34:04;4.00;;;1.70;;
20908;SDS011;10614;53.198;6.570;2023-08-21T01:36:07;4.45;;;2.40;;
20908;SDS011;10614;53.198;6.570;2023-08-21T01:38:09;3.35;;;2.00;;
20908;SDS011;10614;53.198;6.570;2023-08-21T01:40:13;3.50;;;2.10;;
20908;SDS011;10614;53.198;6.570;2023-08-21T01:42:21;4.13;;;1.80;;
20908;SDS011;10614;53.198;6.570;2023-08-21T01:44:23;3.55;;;1.88;;
20908;SDS011;10614;53.198;6.570;2023-08-21T01:46:26;3.53;;;2.17;;
20908;SDS011;10614;53.198;6.570;2023-08-21T01:48:28;4.15;;;2.28;;
20908;SDS011;10614;53.198;6.570;2023-08-21T01:50:29;2.90;;;1.88;;
20908;SDS011;10614;53.198;6.570;2023-08-21T01:52:31;2.53;;;1.83;;
20908;SDS011;10614;53.198;6.570;2023-08-21T01:54:32;2.83;;;1.75;;
20908;SDS011;10614;53.198;6.570;2023-08-21T01:56:35;3.47;;;2.05;;
20908;SDS011;10614;53.198;6.570;2023-08-21T01:58:37;2.90;;;2.03;;
20908;SDS011;10614;53.198;6.570;2023-08-21T02:00:39;4.15;;;2.13;;
20908;SDS011;10614;53.198;6.570;2023-08-21T02:02:40;3.55;;;2.10;;
20908;SDS011;10614;53.198;6.570;2023-08-21T02:04:42;3.25;;;1.80;;
20908;SDS011;10614;53.198;6.570;2023-08-21T02:06:44;4.03;;;2.17;;
20908;SDS011;10614;53.198;6.570;2023-08-21T02:08:45;2.70;;;1.70;;
20908;SDS011;10614;53.198;6.570;2023-08-21T02:10:50;7.65;;;2.40;;
20908;SDS011;10614;53.198;6.570;2023-08-21T02:12:54;8.43;;;2.95;;
20908;SDS011;10614;53.198;6.570;2023-08-21T02:14:56;6.80;;;2.95;;
20908;SDS011;10614;53.198;6.570;2023-08-21T02:16:57;6.35;;;2.95;;
20908;SDS011;10614;53.198;6.570;2023-08-21T02:18:59;4.32;;;2.60;;
20908;SDS011;10614;53.198;6.570;2023-08-21T02:21:01;6.07;;;2.53;;
20908;SDS011;10614;53.198;6.570;2023-08-21T02:23:04;3.50;;;1.88;;
20908;SDS011;10614;53.198;6.570;2023-08-21T02:25:06;3.63;;;2.20;;
20908;SDS011;10614;53.198;6.570;2023-08-21T02:27:08;4.50;;;2.20;;
20908;SDS011;10614;53.198;6.570;2023-08-21T02:29:12;5.55;;;2.70;;
20908;SDS011;10614;53.198;6.570;2023-08-21T02:31:13;4.45;;;2.10;;
20908;SDS011;10614;53.198;6.570;2023-08-21T02:33:15;4.50;;;2.40;;
20908;SDS011;10614;53.198;6.570;2023-08-21T02:35:17;4.10;;;2.20;;
20908;SDS011;10614;53.198;6.570;2023-08-21T02:37:19;5.65;;;2.38;;
20908;SDS011;10614;53.198;6.570;2023-08-21T02:39:21;3.42;;;2.00;;
20908;SDS011;10614;53.198;6.570;2023-08-21T02:41:23;3.67;;;1.70;;
20908;SDS011;10614;53.198;6.570;2023-08-21T02:43:25;4.10;;;2.08;;
20908;SDS011;10614;53.198;6.570;2023-08-21T02:45:27;3.00;;;1.85;;
20908;SDS011;10614;53.198;6.570;2023-08-21T02:47:28;4.50;;;2.15;;
20908;SDS011;10614;53.198;6.570;2023-08-21T02:49:30;3.00;;;1.88;;
20908;SDS011;10614;53.198;6.570;2023-08-21T02:51:32;3.65;;;2.05;;
20908;SDS011;10614;53.198;6.570;2023-08-21T02:53:34;4.97;;;2.05;;
20908;SDS011;10614;53.198;6.570;2023-08-21T02:55:35;4.03;;;2.33;;
20908;SDS011;10614;53.198;6.570;2023-08-21T02:57:37;2.60;;;1.70;;
20908;SDS011;10614;53.198;6.570;2023-08-21T02:59:39;4.72;;;2.25;;
20908;SDS011;10614;53.198;6.570;2023-08-21T03:01:42;2.67;;;1.85;;
20908;SDS011;10614;53.198;6.570;2023-08-21T03:03:44;4.85;;;2.03;;
20908;SDS011;10614;53.198;6.570;2023-08-21T03:05:45;4.28;;;2.17;;
20908;SDS011;10614;53.198;6.570;2023-08-21T03:07:47;3.58;;;1.92;;
20908;SDS011;10614;53.198;6.570;2023-08-21T03:09:49;3.45;;;2.00;;
20908;SDS011;10614;53.198;6.570;2023-08-21T03:11:51;3.00;;;1.95;;
20908;SDS011;10614;53.198;6.570;2023-08-21T03:13:53;3.50;;;1.73;;
20908;SDS011;10614;53.198;6.570;2023-08-21T03:15:55;4.45;;;2.20;;
20908;SDS011;10614;53.198;6.570;2023-08-21T03:17:58;3.13;;;2.03;;
20908;SDS011;10614;53.198;6.570;2023-08-21T03:20:00;2.85;;;1.75;;
20908;SDS011;10614;53.198;6.570;2023-08-21T03:22:04;6.65;;;2.53;;
20908;SDS011;10614;53.198;6.570;2023-08-21T03:24:06;4.30;;;2.20;;
20908;SDS011;10614;53.198;6.570;2023-08-21T03:26:08;4.07;;;2.25;;
20908;SDS011;10614;53.198;6.570;2023-08-21T03:28:09;5.38;;;2.40;;
20908;SDS011;10614;53.198;6.570;2023-08-21T03:30:11;4.03;;;1.98;;
20908;SDS011;10614;53.198;6.570;2023-08-21T03:32:15;3.22;;;1.90;;
20908;SDS011;10614;53.198;6.570;2023-08-21T03:34:18;4.20;;;2.03;;
20908;SDS011;10614;53.198;6.570;2023-08-21T03:36:20;4.53;;;1.92;;
20908;SDS011;10614;53.198;6.570;2023-08-21T03:38:23;3.42;;;1.90;;
20908;SDS011;10614;53.198;6.570;2023-08-21T03:40:25;2.63;;;1.90;;
20908;SDS011;10614;53.198;6.570;2023-08-21T03:42:26;4.10;;;1.80;;
20908;SDS011;10614;53.198;6.570;2023-08-21T03:44:29;2.83;;;1.75;;
20908;SDS011;10614;53.198;6.570;2023-08-21T03:46:30;4.43;;;2.00;;
20908;SDS011;10614;53.198;6.570;2023-08-21T03:48:32;4.63;;;2.15;;
20908;SDS011;10614;53.198;6.570;2023-08-21T03:50:34;3.10;;;2.00;;
20908;SDS011;10614;53.198;6.570;2023-08-21T03:52:36;4.90;;;2.30;;
20908;SDS011;10614;53.198;6.570;2023-08-21T03:54:38;4.95;;;2.30;;
20908;SDS011;10614;53.198;6.570;2023-08-21T03:56:40;4.55;;;2.45;;
20908;SDS011;10614;53.198;6.570;2023-08-21T03:58:41;4.97;;;2.80;;
20908;SDS011;10614;53.198;6.570;2023-08-21T04:00:43;2.92;;;2.22;;
20908;SDS011;10614;53.198;6.570;2023-08-21T04:02:44;4.22;;;2.00;;
20908;SDS011;10614;53.198;6.570;2023-08-21T04:04:46;5.05;;;2.25;;
20908;SDS011;10614;53.198;6.570;2023-08-21T04:06:49;4.07;;;1.90;;
20908;SDS011;10614;53.198;6.570;2023-08-21T04:08:51;4.85;;;2.38;;
20908;SDS011;10614;53.198;6.570;2023-08-21T04:10:53;4.13;;;2.38;;
20908;SDS011;10614;53.198;6.570;2023-08-21T04:12:59;3.53;;;2.00;;
20908;SDS011;10614;53.198;6.570;2023-08-21T04:15:01;4.60;;;2.13;;
20908;SDS011;10614;53.198;6.570;2023-08-21T04:17:02;4.68;;;2.20;;
20908;SDS011;10614;53.198;6.570;2023-08-21T04:19:05;3.80;;;2.03;;
20908;SDS011;10614;53.198;6.570;2023-08-21T04:21:07;3.47;;;2.28;;
20908;SDS011;10614;53.198;6.570;2023-08-21T04:23:10;3.72;;;2.45;;
20908;SDS011;10614;53.198;6.570;2023-08-21T04:25:12;5.63;;;3.08;;
20908;SDS011;10614;53.198;6.570;2023-08-21T04:27:13;5.40;;;2.67;;
20908;SDS011;10614;53.198;6.570;2023-08-21T04:29:15;4.72;;;2.92;;
20908;SDS011;10614;53.198;6.570;2023-08-21T04:31:17;5.18;;;3.28;;
20908;SDS011;10614;53.198;6.570;2023-08-21T04:33:19;4.43;;;2.72;;
20908;SDS011;10614;53.198;6.570;2023-08-21T04:35:20;3.90;;;2.58;;
20908;SDS011;10614;53.198;6.570;2023-08-21T04:37:22;4.63;;;2.70;;
20908;SDS011;10614;53.198;6.570;2023-08-21T04:39:25;4.80;;;2.60;;
20908;SDS011;10614;53.198;6.570;2023-08-21T04:41:27;4.72;;;2.33;;
20908;SDS011;10614;53.198;6.570;2023-08-21T04:43:29;3.95;;;2.20;;
20908;SDS011;10614;53.198;6.570;2023-08-21T04:45:31;3.13;;;2.42;;
20908;SDS011;10614;53.198;6.570;2023-08-21T04:47:32;4.45;;;2.40;;
20908;SDS011;10614;53.198;6.570;2023-08-21T04:49:33;5.03;;;2.60;;
20908;SDS011;10614;53.198;6.570;2023-08-21T04:51:35;5.47;;;2.35;;
20908;SDS011;10614;53.198;6.570;2023-08-21T04:53:37;4.85;;;2.70;;
20908;SDS011;10614;53.198;6.570;2023-08-21T04:55:41;3.92;;;2.50;;
20908;SDS011;10614;53.198;6.570;2023-08-21T04:59:45;4.15;;;2.30;;
20908;SDS011;10614;53.198;6.570;2023-08-21T05:01:46;3.40;;;2.42;;
20908;SDS011;10614;53.198;6.570;2023-08-21T05:03:48;5.10;;;2.60;;
20908;SDS011;10614;53.198;6.570;2023-08-21T05:05:53;4.18;;;2.75;;
20908;SDS011;10614;53.198;6.570;2023-08-21T05:07:57;3.65;;;2.40;;
20908;SDS011;10614;53.198;6.570;2023-08-21T05:09:59;4.13;;;2.25;;
20908;SDS011;10614;53.198;6.570;2023-08-21T05:12:02;4.10;;;2.35;;
20908;SDS011;10614;53.198;6.570;2023-08-21T05:14:04;3.70;;;2.30;;
20908;SDS011;10614;53.198;6.570;2023-08-21T05:16:06;3.42;;;2.25;;
20908;SDS011;10614;53.198;6.570;2023-08-21T05:18:08;3.17;;;2.20;;
20908;SDS011;10614;53.198;6.570;2023-08-21T05:20:10;3.28;;;2.10;;
20908;SDS011;10614;53.198;6.570;2023-08-21T05:22:14;3.50;;;2.25;;
20908;SDS011;10614;53.198;6.570;2023-08-21T05:24:16;3.22;;;1.95;;
20908;SDS011;10614;53.198;6.570;2023-08-21T05:26:18;3.25;;;2.00;;
20908;SDS011;10614;53.198;6.570;2023-08-21T05:28:21;3.00;;;2.00;;
20908;SDS011;10614;53.198;6.570;2023-08-21T05:30:23;3.38;;;2.00;;
20908;SDS011;10614;53.198;6.570;2023-08-21T05:32:26;4.18;;;2.00;;
20908;SDS011;10614;53.198;6.570;2023-08-21T05:34:28;2.42;;;1.73;;
20908;SDS011;10614;53.198;6.570;2023-08-21T05:36:30;3.42;;;2.00;;
20908;SDS011;10614;53.198;6.570;2023-08-21T05:38:32;3.30;;;1.90;;
20908;SDS011;10614;53.198;6.570;2023-08-21T05:40:33;3.90;;;2.00;;
20908;SDS011;10614;53.198;6.570;2023-08-21T05:42:35;2.88;;;2.13;;
20908;SDS011;10614;53.198;6.570;2023-08-21T05:44:38;3.45;;;1.77;;
20908;SDS011;10614;53.198;6.570;2023-08-21T05:46:40;2.22;;;1.80;;
20908;SDS011;10614;53.198;6.570;2023-08-21T05:48:42;2.65;;;1.75;;
20908;SDS011;10614;53.198;6.570;2023-08-21T05:50:44;2.47;;;1.70;;
20908;SDS011;10614;53.198;6.570;2023-08-21T05:52:45;3.70;;;1.80;;
20908;SDS011;10614;53.198;6.570;2023-08-21T05:54:47;2.70;;;1.80;;
20908;SDS011;10614;53.198;6.570;2023-08-21T05:56:49;3.90;;;1.67;;
20908;SDS011;10614;53.198;6.570;2023-08-21T05:58:51;8.23;;;2.75;;
20908;SDS011;10614;53.198;6.570;2023-08-21T06:00:55;8.43;;;3.08;;
20908;SDS011;10614;53.198;6.570;2023-08-21T06:02:56;8.65;;;2.60;;
20908;SDS011;10614;53.198;6.570;2023-08-21T06:04:58;4.43;;;2.40;;
20908;SDS011;10614;53.198;6.570;2023-08-21T06:07:00;5.28;;;2.53;;
20908;SDS011;10614;53.198;6.570;2023-08-21T06:09:03;9.10;;;3.38;;
20908;SDS011;10614;53.198;6.570;2023-08-21T06:11:05;4.45;;;2.15;;
20908;SDS011;10614;53.198;6.570;2023-08-21T06:13:06;4.25;;;2.10;;
20908;SDS011;10614;53.198;6.570;2023-08-21T06:15:09;4.68;;;1.95;;
20908;SDS011;10614;53.198;6.570;2023-08-21T06:17:13;4.95;;;1.70;;
20908;SDS011;10614;53.198;6.570;2023-08-21T06:19:15;2.97;;;1.63;;
20908;SDS011;10614;53.198;6.570;2023-08-21T06:21:16;2.83;;;1.77;;
20908;SDS011;10614;53.198;6.570;2023-08-21T06:23:18;2.80;;;1.75;;
20908;SDS011;10614;53.198;6.570;2023-08-21T06:25:20;4.18;;;1.85;;
20908;SDS011;10614;53.198;6.570;2023-08-21T06:27:22;4.88;;;1.73;;
20908;SDS011;10614;53.198;6.570;2023-08-21T06:29:24;3.92;;;1.60;;
20908;SDS011;10614;53.198;6.570;2023-08-21T06:31:26;8.05;;;2.50;;
20908;SDS011;10614;53.198;6.570;2023-08-21T06:33:29;5.53;;;1.60;;
20908;SDS011;10614;53.198;6.570;2023-08-21T06:35:30;9.95;;;2.35;;
20908;SDS011;10614;53.198;6.570;2023-08-21T06:37:31;4.00;;;1.60;;
20908;SDS011;10614;53.198;6.570;2023-08-21T06:39:33;5.53;;;1.50;;
20908;SDS011;10614;53.198;6.570;2023-08-21T06:41:35;3.83;;;1.35;;
20908;SDS011;10614;53.198;6.570;2023-08-21T06:43:37;4.63;;;1.40;;
20908;SDS011;10614;53.198;6.570;2023-08-21T06:45:39;3.08;;;1.20;;
20908;SDS011;10614;53.198;6.570;2023-08-21T06:47:41;3.97;;;1.40;;
20908;SDS011;10614;53.198;6.570;2023-08-21T06:49:44;2.95;;;1.20;;
20908;SDS011;10614;53.198;6.570;2023-08-21T06:51:46;3.13;;;1.40;;
20908;SDS011;10614;53.198;6.570;2023-08-21T06:53:47;3.97;;;1.52;;
20908;SDS011;10614;53.198;6.570;2023-08-21T06:55:49;3.10;;;1.10;;
20908;SDS011;10614;53.198;6.570;2023-08-21T06:57:54;4.63;;;1.55;;
20908;SDS011;10614;53.198;6.570;2023-08-21T06:59:56;3.17;;;1.13;;
20908;SDS011;10614;53.198;6.570;2023-08-21T07:01:57;3.38;;;1.15;;
20908;SDS011;10614;53.198;6.570;2023-08-21T07:04:02;2.45;;;1.15;;
20908;SDS011;10614;53.198;6.570;2023-08-21T07:06:06;4.63;;;1.70;;
20908;SDS011;10614;53.198;6.570;2023-08-21T07:08:08;5.65;;;1.65;;
20908;SDS011;10614;53.198;6.570;2023-08-21T07:10:09;2.90;;;1.40;;
20908;SDS011;10614;53.198;6.570;2023-08-21T07:12:12;5.68;;;1.73;;
20908;SDS011;10614;53.198;6.570;2023-08-21T07:14:13;6.80;;;2.00;;
20908;SDS011;10614;53.198;6.570;2023-08-21T07:16:17;5.50;;;1.55;;
20908;SDS011;10614;53.198;6.570;2023-08-21T07:18:18;5.70;;;1.50;;
20908;SDS011;10614;53.198;6.570;2023-08-21T07:20:22;4.82;;;1.40;;
20908;SDS011;10614;53.198;6.570;2023-08-21T07:22:25;3.28;;;1.15;;
20908;SDS011;10614;53.198;6.570;2023-08-21T07:24:27;2.13;;;1.20;;
20908;SDS011;10614;53.198;6.570;2023-08-21T07:26:29;2.90;;;1.35;;
20908;SDS011;10614;53.198;6.570;2023-08-21T07:28:30;5.60;;;1.30;;
20908;SDS011;10614;53.198;6.570;2023-08-21T07:30:32;3.50;;;1.50;;
20908;SDS011;10614;53.198;6.570;2023-08-21T07:32:33;2.75;;;1.00;;
20908;SDS011;10614;53.198;6.570;2023-08-21T07:34:35;6.97;;;1.83;;
20908;SDS011;10614;53.198;6.570;2023-08-21T07:36:36;11.40;;;1.70;;
20908;SDS011;10614;53.198;6.570;2023-08-21T07:38:40;6.22;;;1.63;;
20908;SDS011;10614;53.198;6.570;2023-08-21T07:40:41;3.97;;;1.42;;
20908;SDS011;10614;53.198;6.570;2023-08-21T07:42:43;2.95;;;1.27;;
20908;SDS011;10614;53.198;6.570;2023-08-21T07:44:45;6.40;;;1.75;;
20908;SDS011;10614;53.198;6.570;2023-08-21T07:46:47;3.85;;;1.65;;
20908;SDS011;10614;53.198;6.570;2023-08-21T07:48:49;2.88;;;1.35;;
20908;SDS011;10614;53.198;6.570;2023-08-21T07:50:51;3.13;;;1.27;;
20908;SDS011;10614;53.198;6.570;2023-08-21T07:52:53;2.42;;;0.98;;
20908;SDS011;10614;53.198;6.570;2023-08-21T07:54:56;1.40;;;0.90;;
20908;SDS011;10614;53.198;6.570;2023-08-21T07:56:59;4.23;;;1.00;;
20908;SDS011;10614;53.198;6.570;2023-08-21T07:59:01;3.53;;;1.20;;
20908;SDS011;10614;53.198;6.570;2023-08-21T08:01:03;4.10;;;1.20;;
20908;SDS011;10614;53.198;6.570;2023-08-21T08:03:06;2.78;;;1.15;;
20908;SDS011;10614;53.198;6.570;2023-08-21T08:05:07;4.03;;;1.50;;
20908;SDS011;10614;53.198;6.570;2023-08-21T08:07:09;6.28;;;1.60;;
20908;SDS011;10614;53.198;6.570;2023-08-21T08:09:11;4.13;;;1.50;;
20908;SDS011;10614;53.198;6.570;2023-08-21T08:11:14;6.05;;;1.63;;
20908;SDS011;10614;53.198;6.570;2023-08-21T08:13:16;7.30;;;1.90;;
20908;SDS011;10614;53.198;6.570;2023-08-21T08:15:17;6.40;;;1.58;;
20908;SDS011;10614;53.198;6.570;2023-08-21T08:17:19;3.00;;;1.23;;
20908;SDS011;10614;53.198;6.570;2023-08-21T08:19:23;4.05;;;1.67;;
20908;SDS011;10614;53.198;6.570;2023-08-21T08:21:25;5.47;;;1.77;;
20908;SDS011;10614;53.198;6.570;2023-08-21T08:23:27;3.90;;;1.40;;
20908;SDS011;10614;53.198;6.570;2023-08-21T08:25:28;4.10;;;1.52;;
20908;SDS011;10614;53.198;6.570;2023-08-21T08:27:31;3.47;;;1.45;;
20908;SDS011;10614;53.198;6.570;2023-08-21T08:29:33;4.35;;;1.58;;
20908;SDS011;10614;53.198;6.570;2023-08-21T08:31:34;3.58;;;1.42;;
20908;SDS011;10614;53.198;6.570;2023-08-21T08:33:39;3.50;;;1.40;;
20908;SDS011;10614;53.198;6.570;2023-08-21T08:35:41;5.35;;;1.30;;
20908;SDS011;10614;53.198;6.570;2023-08-21T08:37:43;5.38;;;1.58;;
20908;SDS011;10614;53.198;6.570;2023-08-21T08:39:45;3.47;;;1.45;;
20908;SDS011;10614;53.198;6.570;2023-08-21T08:41:51;2.67;;;1.23;;
20908;SDS011;10614;53.198;6.570;2023-08-21T08:43:59;2.78;;;1.30;;
20908;SDS011;10614;53.198;6.570;2023-08-21T08:46:14;5.05;;;1.60;;
20908;SDS011;10614;53.198;6.570;2023-08-21T08:48:19;3.70;;;1.50;;
20908;SDS011;10614;53.198;6.570;2023-08-21T08:50:27;3.75;;;1.20;;
20908;SDS011;10614;53.198;6.570;2023-08-21T08:52:31;3.17;;;1.50;;
20908;SDS011;10614;53.198;6.570;2023-08-21T08:54:35;3.13;;;1.30;;
20908;SDS011;10614;53.198;6.570;2023-08-21T08:56:38;2.92;;;1.20;;
20908;SDS011;10614;53.198;6.570;2023-08-21T08:58:40;2.35;;;0.90;;
20908;SDS011;10614;53.198;6.570;2023-08-21T09:00:44;5.15;;;1.40;;
20908;SDS011;10614;53.198;6.570;2023-08-21T09:02:46;4.57;;;1.35;;
20908;SDS011;10614;53.198;6.570;2023-08-21T09:04:47;2.47;;;1.20;;
20908;SDS011;10614;53.198;6.570;2023-08-21T09:06:48;4.70;;;2.45;;
20908;SDS011;10614;53.198;6.570;2023-08-21T09:08:53;4.45;;;2.30;;
20908;SDS011;10614;53.198;6.570;2023-08-21T09:12:57;3.72;;;1.75;;
20908;SDS011;10614;53.198;6.570;2023-08-21T09:15:03;4.07;;;1.35;;
20908;SDS011;10614;53.198;6.570;2023-08-21T09:17:09;4.10;;;1.30;;
20908;SDS011;10614;53.198;6.570;2023-08-21T09:19:12;7.90;;;1.77;;
20908;SDS011;10614;53.198;6.570;2023-08-21T09:21:24;5.40;;;1.45;;
20908;SDS011;10614;53.198;6.570;2023-08-21T09:23:27;4.50;;;1.30;;
20908;SDS011;10614;53.198;6.570;2023-08-21T09:25:33;4.72;;;1.52;;
20908;SDS011;10614;53.198;6.570;2023-08-21T09:27:37;3.60;;;1.30;;
20908;SDS011;10614;53.198;6.570;2023-08-21T09:29:40;2.75;;;1.27;;
20908;SDS011;10614;53.198;6.570;2023-08-21T09:31:42;2.80;;;1.30;;
20908;SDS011;10614;53.198;6.570;2023-08-21T09:33:49;3.33;;;1.23;;
20908;SDS011;10614;53.198;6.570;2023-08-21T09:35:57;5.35;;;1.33;;
20908;SDS011;10614;53.198;6.570;2023-08-21T09:37:59;3.85;;;1.35;;
20908;SDS011;10614;53.198;6.570;2023-08-21T09:40:01;5.47;;;1.30;;
20908;SDS011;10614;53.198;6.570;2023-08-21T09:42:07;3.28;;;1.20;;
20908;SDS011;10614;53.198;6.570;2023-08-21T09:44:10;3.25;;;1.30;;
20908;SDS011;10614;53.198;6.570;2023-08-21T09:46:14;4.38;;;1.38;;
20908;SDS011;10614;53.198;6.570;2023-08-21T09:48:16;2.08;;;1.20;;
20908;SDS011;10614;53.198;6.570;2023-08-21T09:50:20;3.40;;;1.33;;
20908;SDS011;10614;53.198;6.570;2023-08-21T09:52:23;2.97;;;1.33;;
20908;SDS011;10614;53.198;6.570;2023-08-21T09:54:25;6.65;;;1.35;;
20908;SDS011;10614;53.198;6.570;2023-08-21T09:56:27;3.58;;;1.17;;
20908;SDS011;10614;53.198;6.570;2023-08-21T09:58:29;2.70;;;1.10;;
20908;SDS011;10614;53.198;6.570;2023-08-21T10:00:32;2.55;;;1.10;;
20908;SDS011;10614;53.198;6.570;2023-08-21T10:02:35;2.35;;;0.95;;
20908;SDS011;10614;53.198;6.570;2023-08-21T10:04:36;3.80;;;1.23;;
20908;SDS011;10614;53.198;6.570;2023-08-21T10:06:43;4.40;;;1.08;;
20908;SDS011;10614;53.198;6.570;2023-08-21T10:08:47;2.45;;;1.20;;
20908;SDS011;10614;53.198;6.570;2023-08-21T10:10:52;2.70;;;1.20;;
20908;SDS011;10614;53.198;6.570;2023-08-21T10:12:54;5.93;;;1.63;;
20908;SDS011;10614;53.198;6.570;2023-08-21T10:14:56;8.20;;;4.47;;
20908;SDS011;10614;53.198;6.570;2023-08-21T10:16:57;7.78;;;3.03;;
20908;SDS011;10614;53.198;6.570;2023-08-21T10:19:02;5.18;;;2.05;;
20908;SDS011;10614;53.198;6.570;2023-08-21T10:21:15;4.70;;;1.60;;
20908;SDS011;10614;53.198;6.570;2023-08-21T10:23:26;3.47;;;1.20;;
20908;SDS011;10614;53.198;6.570;2023-08-21T10:25:30;3.08;;;1.17;;
20908;SDS011;10614;53.198;6.570;2023-08-21T10:27:33;3.95;;;1.27;;
20908;SDS011;10614;53.198;6.570;2023-08-21T10:29:35;5.78;;;1.40;;
20908;SDS011;10614;53.198;6.570;2023-08-21T10:31:37;3.47;;;1.38;;
20908;SDS011;10614;53.198;6.570;2023-08-21T10:33:46;7.20;;;1.50;;
20908;SDS011;10614;53.198;6.570;2023-08-21T10:35:48;4.00;;;1.20;;
20908;SDS011;10614;53.198;6.570;2023-08-21T10:40:22;2.83;;;1.10;;
20908;SDS011;10614;53.198;6.570;2023-08-21T10:42:37;4.45;;;1.10;;
20908;SDS011;10614;53.198;6.570;2023-08-21T10:44:48;4.82;;;1.40;;
20908;SDS011;10614;53.198;6.570;2023-08-21T10:46:51;3.88;;;1.10;;
20908;SDS011;10614;53.198;6.570;2023-08-21T10:48:54;4.05;;;1.50;;
20908;SDS011;10614;53.198;6.570;2023-08-21T10:50:56;4.20;;;1.42;;
20908;SDS011;10614;53.198;6.570;2023-08-21T10:53:01;3.83;;;1.35;;
20908;SDS011;10614;53.198;6.570;2023-08-21T10:55:03;3.25;;;1.30;;
20908;SDS011;10614;53.198;6.570;2023-08-21T10:57:06;3.30;;;1.30;;
20908;SDS011;10614;53.198;6.570;2023-08-21T10:59:09;3.93;;;1.30;;
20908;SDS011;10614;53.198;6.570;2023-08-21T11:01:12;4.38;;;1.35;;
20908;SDS011;10614;53.198;6.570;2023-08-21T11:03:15;3.38;;;1.20;;
20908;SDS011;10614;53.198;6.570;2023-08-21T11:05:17;3.03;;;1.00;;
20908;SDS011;10614;53.198;6.570;2023-08-21T11:07:19;3.50;;;1.17;;
20908;SDS011;10614;53.198;6.570;2023-08-21T11:09:21;4.70;;;1.15;;
20908;SDS011;10614;53.198;6.570;2023-08-21T11:11:22;5.13;;;1.30;;
20908;SDS011;10614;53.198;6.570;2023-08-21T11:13:27;3.78;;;1.17;;
20908;SDS011;10614;53.198;6.570;2023-08-21T11:15:29;3.95;;;1.40;;
20908;SDS011;10614;53.198;6.570;2023-08-21T11:17:31;4.10;;;1.40;;
20908;SDS011;10614;53.198;6.570;2023-08-21T11:19:33;2.20;;;1.15;;
20908;SDS011;10614;53.198;6.570;2023-08-21T11:21:34;3.88;;;1.30;;
20908;SDS011;10614;53.198;6.570;2023-08-21T11:23:37;5.13;;;1.35;;
20908;SDS011;10614;53.198;6.570;2023-08-21T11:25:39;3.83;;;1.40;;
20908;SDS011;10614;53.198;6.570;2023-08-21T11:27:41;3.85;;;1.13;;
20908;SDS011;10614;53.198;6.570;2023-08-21T11:29:46;3.05;;;1.30;;
20908;SDS011;10614;53.198;6.570;2023-08-21T11:31:50;4.40;;;1.40;;
20908;SDS011;10614;53.198;6.570;2023-08-21T11:33:52;5.43;;;1.80;;
20908;SDS011;10614;53.198;6.570;2023-08-21T11:35:54;5.05;;;1.40;;
20908;SDS011;10614;53.198;6.570;2023-08-21T11:37:57;4.32;;;1.40;;
20908;SDS011;10614;53.198;6.570;2023-08-21T11:39:59;4.70;;;1.30;;
20908;SDS011;10614;53.198;6.570;2023-08-21T11:42:09;4.28;;;1.55;;
20908;SDS011;10614;53.198;6.570;2023-08-21T11:44:12;3.88;;;1.42;;
20908;SDS011;10614;53.198;6.570;2023-08-21T11:46:18;3.08;;;1.30;;
20908;SDS011;10614;53.198;6.570;2023-08-21T11:48:20;5.68;;;1.58;;
20908;SDS011;10614;53.198;6.570;2023-08-21T11:50:23;2.85;;;1.25;;
20908;SDS011;10614;53.198;6.570;2023-08-21T11:52:24;3.97;;;1.40;;
20908;SDS011;10614;53.198;6.570;2023-08-21T11:54:31;4.15;;;1.45;;
20908;SDS011;10614;53.198;6.570;2023-08-21T11:56:33;4.00;;;1.42;;
20908;SDS011;10614;53.198;6.570;2023-08-21T11:58:37;6.20;;;1.60;;
20908;SDS011;10614;53.198;6.570;2023-08-21T12:00:40;2.95;;;1.20;;
20908;SDS011;10614;53.198;6.570;2023-08-21T12:02:43;11.48;;;2.17;;
20908;SDS011;10614;53.198;6.570;2023-08-21T12:04:45;6.20;;;1.80;;
20908;SDS011;10614;53.198;6.570;2023-08-21T12:06:53;3.10;;;1.50;;
20908;SDS011;10614;53.198;6.570;2023-08-21T12:08:56;7.00;;;1.70;;
20908;SDS011;10614;53.198;6.570;2023-08-21T12:10:57;4.63;;;1.70;;
20908;SDS011;10614;53.198;6.570;2023-08-21T12:12:59;3.67;;;1.15;;
20908;SDS011;10614;53.198;6.570;2023-08-21T12:15:01;3.85;;;1.42;;
20908;SDS011;10614;53.198;6.570;2023-08-21T12:17:03;5.72;;;1.70;;
20908;SDS011;10614;53.198;6.570;2023-08-21T12:19:06;4.25;;;1.60;;
20908;SDS011;10614;53.198;6.570;2023-08-21T12:21:09;3.65;;;1.60;;
20908;SDS011;10614;53.198;6.570;2023-08-21T12:23:11;6.38;;;1.50;;
20908;SDS011;10614;53.198;6.570;2023-08-21T12:25:13;5.07;;;1.92;;
20908;SDS011;10614;53.198;6.570;2023-08-21T12:27:16;4.70;;;1.63;;